Time;durP1;ratioP1;P1;durP2;ratioP2;P2;SDS_P1;SDS_P2;PMS_P1;PMS_P2;Temp;Humidity;BMP_temperature;BMP_pressure;BME280_temperature;BME280_humidity;BME280_pressure;Samples;Min_cycle;Max_cycle;Signal;HPM_P1;HPM_P2
2023/07/19 00:00:41;;;;;;;5.78;2.60;;;;;;;16.00;99.60;101402.53;5043536;28;20236;-74
2023/07/19 00:03:06;;;;;;;8.18;2.95;;;;;;;16.00;98.37;101394.66;5043829;28;20044;-73
2023/07/19 00:05:31;;;;;;;6.43;3.00;;;;;;;15.98;98.59;101383.31;5038787;28;20385;-73
2023/07/19 00:07:57;;;;;;;4.00;2.80;;;;;;;15.97;98.52;101375.50;5042758;28;20053;-73
2023/07/19 00:10:22;;;;;;;4.78;2.70;;;;;;;15.96;99.11;101377.28;5044280;28;20477;-73
2023/07/19 00:12:48;;;;;;;6.00;3.28;;;;;;;15.89;99.61;101387.16;5037640;28;20041;-73
2023/07/19 00:15:14;;;;;;;8.38;4.65;;;;;;;15.82;99.47;101383.03;5044798;28;20147;-73
2023/07/19 00:17:41;;;;;;;10.02;3.95;;;;;;;15.87;99.69;101394.25;5044395;28;20028;-73
2023/07/19 00:20:07;;;;;;;8.38;4.45;;;;;;;15.74;100.00;101384.25;5043832;28;20053;-73
2023/07/19 00:22:32;;;;;;;7.65;4.43;;;;;;;15.76;100.00;101378.03;5042177;28;20033;-73
2023/07/19 00:24:57;;;;;;;10.75;5.15;;;;;;;15.70;100.00;101374.75;5039380;28;20504;-73
2023/07/19 00:27:24;;;;;;;9.70;5.05;;;;;;;15.67;100.00;101373.94;5040236;28;20072;-73
2023/07/19 00:29:50;;;;;;;7.00;3.95;;;;;;;15.55;100.00;101363.84;5042807;28;20469;-73
2023/07/19 00:32:15;;;;;;;8.68;3.40;;;;;;;15.56;100.00;101365.53;5050104;28;20061;-73
2023/07/19 00:34:40;;;;;;;5.45;3.13;;;;;;;15.50;100.00;101363.16;5035263;28;20028;-74
2023/07/19 00:37:06;;;;;;;6.72;3.28;;;;;;;15.43;100.00;101364.25;5039458;28;20045;-73
2023/07/19 00:39:31;;;;;;;4.85;2.95;;;;;;;15.34;100.00;101356.72;5044627;28;20021;-73
2023/07/19 00:41:57;;;;;;;5.07;2.75;;;;;;;15.36;100.00;101357.50;5043563;28;20031;-73
2023/07/19 00:44:22;;;;;;;5.85;3.22;;;;;;;15.33;100.00;101341.84;5042624;28;20029;-73
2023/07/19 00:46:48;;;;;;;6.53;3.35;;;;;;;15.35;100.00;101340.91;5042271;28;20076;-73
2023/07/19 00:49:14;;;;;;;4.95;3.10;;;;;;;15.43;100.00;101351.13;5036942;28;20382;-73
2023/07/19 00:51:40;;;;;;;7.30;3.15;;;;;;;15.42;100.00;101345.03;5033518;28;20021;-73
2023/07/19 00:54:07;;;;;;;7.55;3.53;;;;;;;15.42;100.00;101341.53;5034142;28;20025;-73
2023/07/19 00:56:33;;;;;;;7.28;3.70;;;;;;;15.40;100.00;101341.59;5038696;28;20031;-73
2023/07/19 00:59:01;;;;;;;7.70;4.28;;;;;;;15.40;100.00;101352.13;5038069;28;20025;-73
2023/07/19 01:01:26;;;;;;;5.88;3.95;;;;;;;15.32;100.00;101341.00;5037563;28;20033;-73
2023/07/19 01:03:52;;;;;;;5.53;3.40;;;;;;;15.39;100.00;101349.53;5036491;28;20088;-73
2023/07/19 01:06:19;;;;;;;5.63;2.83;;;;;;;15.35;100.00;101338.28;5044202;28;20021;-73
2023/07/19 01:08:46;;;;;;;6.10;3.00;;;;;;;15.26;100.00;101340.38;5040854;28;20030;-73
2023/07/19 01:11:11;;;;;;;6.22;3.17;;;;;;;15.19;100.00;101337.94;5039278;28;20036;-73
2023/07/19 01:13:37;;;;;;;6.05;2.92;;;;;;;15.22;100.00;101340.47;5034335;28;20029;-73
2023/07/19 01:16:02;;;;;;;7.13;4.32;;;;;;;15.25;100.00;101339.50;5044582;28;20033;-73
2023/07/19 01:18:27;;;;;;;7.55;3.55;;;;;;;15.23;100.00;101325.56;5044304;28;20033;-73
2023/07/19 01:20:53;;;;;;;6.65;3.45;;;;;;;15.18;100.00;101332.75;5039520;28;20017;-73
2023/07/19 01:23:18;;;;;;;5.88;3.25;;;;;;;15.14;100.00;101329.38;5035370;28;20108;-73
2023/07/19 01:25:43;;;;;;;6.35;3.40;;;;;;;15.11;100.00;101323.38;5041303;28;20447;-73
2023/07/19 01:28:09;;;;;;;6.32;3.13;;;;;;;15.16;100.00;101330.16;5040847;28;20044;-73
2023/07/19 01:30:35;;;;;;;6.55;3.67;;;;;;;15.13;100.00;101329.44;5045702;28;20802;-73
2023/07/19 01:33:01;;;;;;;6.45;3.38;;;;;;;15.08;100.00;101326.97;5040790;28;20486;-73
2023/07/19 01:35:26;;;;;;;7.43;3.80;;;;;;;15.03;100.00;101330.66;5042467;28;20053;-73
2023/07/19 01:37:52;;;;;;;6.50;3.40;;;;;;;14.95;100.00;101325.69;5038699;28;20053;-73
2023/07/19 01:40:17;;;;;;;7.32;3.35;;;;;;;14.98;100.00;101317.69;5047961;28;20385;-73
2023/07/19 01:42:42;;;;;;;8.75;3.80;;;;;;;14.95;100.00;101309.94;5039751;28;20108;-73
2023/07/19 01:45:08;;;;;;;5.45;3.22;;;;;;;15.03;100.00;101318.38;5047139;28;20101;-73
2023/07/19 01:47:34;;;;;;;6.68;3.50;;;;;;;15.05;100.00;101319.19;5035298;28;20721;-73
2023/07/19 01:50:00;;;;;;;5.32;3.05;;;;;;;15.06;100.00;101318.28;5032997;28;20033;-73
2023/07/19 01:52:25;;;;;;;5.07;3.00;;;;;;;15.12;100.00;101314.59;5033173;28;20029;-73
2023/07/19 01:54:51;;;;;;;7.22;3.38;;;;;;;15.10;100.00;101306.75;5036399;28;20068;-73
2023/07/19 01:57:16;;;;;;;5.80;3.40;;;;;;;15.05;100.00;101310.47;5044615;28;20040;-73
2023/07/19 01:59:42;;;;;;;7.80;3.42;;;;;;;15.08;100.00;101310.38;5041269;28;20094;-73
2023/07/19 02:02:07;;;;;;;6.28;3.38;;;;;;;15.08;100.00;101305.97;5044593;28;20029;-73
2023/07/19 02:04:33;;;;;;;7.45;3.50;;;;;;;15.14;100.00;101305.75;5041044;28;20029;-73
2023/07/19 02:06:58;;;;;;;4.60;3.20;;;;;;;15.14;100.00;101305.75;5038003;28;20040;-73
2023/07/19 02:09:23;;;;;;;7.15;3.42;;;;;;;15.16;100.00;101321.44;5035716;28;20017;-73
2023/07/19 02:11:49;;;;;;;7.18;4.10;;;;;;;15.07;100.00;101313.88;5034055;28;20038;-74
2023/07/19 02:14:14;;;;;;;9.75;3.92;;;;;;;15.11;100.00;101315.50;5042134;28;20099;-73
2023/07/19 02:16:40;;;;;;;5.93;3.50;;;;;;;15.06;100.00;101312.16;5039263;28;20507;-73
2023/07/19 02:19:06;;;;;;;6.13;3.20;;;;;;;15.06;100.00;101286.75;5042571;28;20064;-73
2023/07/19 02:21:32;;;;;;;9.75;3.70;;;;;;;15.15;100.00;101291.69;5037624;28;20096;-73
2023/07/19 02:23:57;;;;;;;6.80;3.60;;;;;;;15.14;100.00;101284.75;5038717;28;20178;-73
2023/07/19 02:26:24;;;;;;;4.63;3.58;;;;;;;15.13;100.00;101288.25;5042144;28;20044;-74
2023/07/19 02:28:49;;;;;;;8.43;3.50;;;;;;;15.10;100.00;101284.88;5036787;28;20445;-74
2023/07/19 02:31:14;;;;;;;17.52;3.90;;;;;;;15.21;100.00;101295.88;5041567;28;20064;-73
2023/07/19 02:33:40;;;;;;;6.82;3.40;;;;;;;15.22;100.00;101277.44;5035970;28;20048;-73
2023/07/19 02:36:05;;;;;;;8.43;4.10;;;;;;;15.27;100.00;101282.53;5039760;28;20150;-74
2023/07/19 02:38:31;;;;;;;10.18;3.50;;;;;;;15.33;100.00;101274.41;5030036;28;20107;-74
2023/07/19 02:40:58;;;;;;;6.57;3.22;;;;;;;15.37;100.00;101286.53;5043906;28;20125;-74
2023/07/19 02:43:23;;;;;;;8.55;3.63;;;;;;;15.33;100.00;101284.06;5033999;28;20025;-73
2023/07/19 02:45:49;;;;;;;9.13;3.85;;;;;;;15.35;100.00;101300.63;5032965;28;20025;-74
2023/07/19 02:48:14;;;;;;;7.53;4.05;;;;;;;15.32;100.00;101298.97;5039924;28;20021;-74
2023/07/19 02:50:45;;;;;;;7.15;3.20;;;;;;;15.32;100.00;101298.97;5040561;28;20465;-74
2023/07/19 02:53:10;;;;;;;6.88;3.72;;;;;;;15.28;100.00;101293.91;5030646;28;20075;-74
2023/07/19 02:55:35;;;;;;;8.10;4.18;;;;;;;15.34;100.00;101298.94;5033863;28;20064;-74
2023/07/19 02:58:01;;;;;;;6.25;4.20;;;;;;;15.29;100.00;101292.97;5039429;28;20461;-73
2023/07/19 03:00:26;;;;;;;6.53;4.53;;;;;;;15.34;100.00;101291.91;5040087;28;20013;-74
2023/07/19 03:02:53;;;;;;;7.63;4.05;;;;;;;15.36;100.00;101300.56;5038912;28;20273;-74
2023/07/19 03:05:20;;;;;;;5.43;4.07;;;;;;;15.41;100.00;101293.41;5036081;28;20044;-74
2023/07/19 03:07:45;;;;;;;7.75;4.13;;;;;;;15.36;100.00;101286.59;5048291;28;20025;-74
2023/07/19 03:10:10;;;;;;;8.15;4.22;;;;;;;15.29;100.00;101287.72;5043552;28;20470;-74
2023/07/19 03:12:36;;;;;;;11.15;4.40;;;;;;;15.23;100.00;101296.66;5046416;28;20033;-73
2023/07/19 03:15:01;;;;;;;5.55;4.32;;;;;;;15.14;100.00;101302.25;5041467;28;20115;-73
2023/07/19 03:17:26;;;;;;;7.53;4.45;;;;;;;15.15;100.00;101302.19;5040313;28;20053;-73
2023/07/19 03:19:52;;;;;;;5.60;4.25;;;;;;;15.17;100.00;101302.13;5041325;28;20045;-73
2023/07/19 03:22:17;;;;;;;7.93;4.43;;;;;;;15.09;100.00;101291.91;5044088;28;20395;-73
2023/07/19 03:24:43;;;;;;;6.88;3.97;;;;;;;15.09;100.00;101297.16;5041938;28;20029;-73
2023/07/19 03:27:08;;;;;;;6.55;3.92;;;;;;;15.16;100.00;101297.81;5041118;28;20028;-73
2023/07/19 03:29:34;;;;;;;9.20;4.05;;;;;;;15.26;100.00;101308.84;5039119;28;20021;-73
2023/07/19 03:31:59;;;;;;;5.85;3.78;;;;;;;15.36;100.00;101310.22;5043223;28;20443;-74
2023/07/19 03:34:24;;;;;;;6.70;4.40;;;;;;;15.40;100.00;101317.97;5036523;28;20033;-73
2023/07/19 03:36:50;;;;;;;5.55;4.00;;;;;;;15.31;100.00;101293.78;5040927;28;20059;-73
2023/07/19 03:39:15;;;;;;;6.07;3.90;;;;;;;15.46;100.00;101306.34;5034144;28;20366;-73
2023/07/19 03:41:40;;;;;;;9.82;4.53;;;;;;;15.51;100.00;101307.06;5040098;28;20083;-73
2023/07/19 03:44:06;;;;;;;10.88;4.60;;;;;;;15.38;100.00;101293.50;5042178;28;20108;-73
2023/07/19 03:46:31;;;;;;;7.32;4.22;;;;;;;15.44;100.00;101303.78;5042724;28;20022;-73
2023/07/19 03:48:56;;;;;;;8.65;4.63;;;;;;;15.40;100.00;101314.44;5038492;28;20461;-73
2023/07/19 03:51:22;;;;;;;9.85;4.80;;;;;;;15.33;100.00;101310.34;5039031;28;20421;-73
2023/07/19 03:53:47;;;;;;;7.82;5.78;;;;;;;15.36;100.00;101313.72;5032981;28;20452;-73
2023/07/19 03:56:12;;;;;;;8.63;5.30;;;;;;;15.36;100.00;101302.34;5039552;28;20539;-73
2023/07/19 03:58:39;;;;;;;7.65;5.07;;;;;;;15.41;100.00;101316.19;5033392;28;20097;-73
2023/07/19 04:01:05;;;;;;;10.60;5.10;;;;;;;15.42;100.00;101325.78;5036228;28;20031;-73
2023/07/19 04:03:30;;;;;;;7.45;4.60;;;;;;;15.43;100.00;101314.34;5034994;28;20038;-73
2023/07/19 04:05:57;;;;;;;7.53;4.93;;;;;;;15.45;100.00;101315.16;5040814;28;20021;-73
2023/07/19 04:08:22;;;;;;;7.47;5.25;;;;;;;15.47;100.00;101313.34;5043279;28;20029;-73
2023/07/19 04:10:48;;;;;;;8.10;5.82;;;;;;;15.42;100.00;101310.88;5036244;28;20075;-73
2023/07/19 04:13:13;;;;;;;7.47;4.97;;;;;;;15.47;100.00;101310.72;5037604;28;20548;-73
2023/07/19 04:15:39;;;;;;;7.75;4.85;;;;;;;15.52;100.00;101308.75;5048056;28;20037;-73
2023/07/19 04:18:05;;;;;;;8.75;5.95;;;;;;;15.47;100.00;101305.47;5039243;28;20504;-74
2023/07/19 04:20:30;;;;;;;6.22;4.82;;;;;;;15.50;100.00;101317.59;5039730;28;20040;-73
2023/07/19 04:22:56;;;;;;;6.53;5.05;;;;;;;15.48;100.00;101312.41;5036162;28;20032;-73
2023/07/19 04:25:24;;;;;;;9.48;5.85;;;;;;;15.46;100.00;101316.84;5044097;28;20072;-73
2023/07/19 04:27:50;;;;;;;9.48;6.43;;;;;;;15.44;100.00;101309.06;5034237;28;20099;-73
2023/07/19 04:30:16;;;;;;;8.00;5.50;;;;;;;15.43;100.00;101306.47;5051329;28;20363;-73
2023/07/19 04:32:41;;;;;;;6.88;5.57;;;;;;;15.44;100.00;101305.56;5043523;28;20099;-74
2023/07/19 04:35:07;;;;;;;10.32;6.22;;;;;;;15.42;100.00;101310.00;5043891;28;20404;-73
2023/07/19 04:37:32;;;;;;;9.95;5.88;;;;;;;15.42;100.00;101308.22;5042155;28;20037;-73
2023/07/19 04:39:58;;;;;;;8.65;5.70;;;;;;;15.51;100.00;101312.31;5044344;28;20381;-74
2023/07/19 04:42:24;;;;;;;8.82;6.25;;;;;;;15.53;100.00;101306.97;5035774;28;20480;-73
2023/07/19 04:44:50;;;;;;;11.50;5.53;;;;;;;15.60;100.00;101317.22;5039296;28;20119;-74
2023/07/19 04:47:16;;;;;;;8.25;5.97;;;;;;;15.63;100.00;101317.13;5040676;28;20416;-73
2023/07/19 04:49:42;;;;;;;10.50;6.38;;;;;;;15.61;100.00;101316.31;5041336;28;20043;-74
2023/07/19 04:52:07;;;;;;;8.25;6.38;;;;;;;15.63;100.00;101319.75;5040381;28;20029;-73
2023/07/19 04:54:33;;;;;;;8.40;6.20;;;;;;;15.65;100.00;101327.56;5038481;28;20026;-74
2023/07/19 04:56:58;;;;;;;10.32;6.00;;;;;;;15.64;100.00;101326.72;5043097;28;20358;-74
2023/07/19 04:59:24;;;;;;;8.20;5.70;;;;;;;15.70;100.00;101335.34;5045203;28;20029;-74
2023/07/19 05:01:49;;;;;;;6.85;5.63;;;;;;;15.69;100.00;101326.56;5045904;28;20462;-74
2023/07/19 05:04:14;;;;;;;9.07;5.70;;;;;;;15.76;100.00;101333.34;5044687;28;20044;-74
2023/07/19 05:06:39;;;;;;;9.18;5.65;;;;;;;15.81;100.00;101333.16;5042936;28;20031;-73
2023/07/19 05:09:08;;;;;;;8.38;6.38;;;;;;;15.84;100.00;101326.00;5043188;28;20411;-74
2023/07/19 05:11:34;;;;;;;7.65;5.68;;;;;;;15.91;100.00;101327.47;5041892;28;20029;-73
2023/07/19 05:13:59;;;;;;;6.95;5.20;;;;;;;15.96;100.00;101331.69;5044822;28;20087;-74
2023/07/19 05:16:25;;;;;;;9.68;5.55;;;;;;;16.01;100.00;101330.63;5045608;28;20028;-74
2023/07/19 05:18:51;;;;;;;6.93;5.70;;;;;;;16.08;100.00;101323.34;5039860;28;20045;-74
2023/07/19 05:21:16;;;;;;;12.13;5.65;;;;;;;16.12;100.00;101322.31;5040756;28;20102;-74
2023/07/19 05:23:41;;;;;;;8.65;5.15;;;;;;;16.22;100.00;101323.69;5038522;28;20067;-74
2023/07/19 05:26:07;;;;;;;8.80;5.47;;;;;;;16.33;100.00;101320.63;5036249;28;20030;-73
2023/07/19 05:28:32;;;;;;;7.38;5.40;;;;;;;16.41;100.00;101318.53;5040458;28;20021;-73
2023/07/19 05:31:02;;;;;;;10.13;5.93;;;;;;;16.52;100.00;101311.06;5042869;28;20029;-73
2023/07/19 05:33:27;;;;;;;10.00;6.13;;;;;;;16.55;100.00;101299.56;5028617;28;20047;-74
2023/07/19 05:35:52;;;;;;;7.18;5.75;;;;;;;16.73;100.00;101314.56;5038381;28;20465;-74
2023/07/19 05:38:18;;;;;;;7.78;5.43;;;;;;;16.71;100.00;101297.13;5039832;28;20040;-74
2023/07/19 05:40:43;;;;;;;8.75;5.82;;;;;;;16.92;100.00;101314.69;5039322;28;20033;-73
2023/07/19 05:43:08;;;;;;;6.53;4.88;;;;;;;16.99;100.00;101315.31;5042135;28;20030;-73
2023/07/19 05:45:35;;;;;;;8.45;5.20;;;;;;;17.00;100.00;101309.97;5046422;28;20041;-74
2023/07/19 05:48:00;;;;;;;9.23;5.03;;;;;;;16.98;100.00;101306.53;5042786;28;20029;-74
2023/07/19 05:50:27;;;;;;;8.13;5.43;;;;;;;17.09;100.00;101312.19;5040371;28;20025;-73
2023/07/19 05:52:53;;;;;;;10.45;5.30;;;;;;;17.16;100.00;101325.97;5043166;28;20029;-74
2023/07/19 05:55:18;;;;;;;7.22;4.70;;;;;;;17.25;100.00;101317.66;5038572;28;20083;-73
2023/07/19 05:57:44;;;;;;;7.70;5.47;;;;;;;17.36;100.00;101314.53;5038808;28;20030;-74
2023/07/19 06:00:24;;;;;;;7.70;4.97;;;;;;;17.39;100.00;101309.13;5046687;28;20033;-74
2023/07/19 06:02:52;;;;;;;7.88;5.63;;;;;;;17.50;100.00;101316.59;5035208;28;20033;-74
2023/07/19 06:05:17;;;;;;;8.40;5.30;;;;;;;17.57;100.00;101323.28;5035098;28;20029;-74
2023/07/19 06:07:43;;;;;;;8.27;5.05;;;;;;;17.55;100.00;101320.72;5037509;28;20418;-74
2023/07/19 06:10:08;;;;;;;5.50;4.38;;;;;;;17.58;100.00;101326.78;5031495;28;20075;-74
2023/07/19 06:12:33;;;;;;;10.52;5.07;;;;;;;17.55;100.00;101315.44;5039927;28;20026;-73
2023/07/19 06:14:59;;;;;;;7.95;4.40;;;;;;;17.65;100.00;101318.50;5045607;28;20036;-74
2023/07/19 06:17:24;;;;;;;9.07;4.90;;;;;;;17.81;100.00;101326.63;5039541;28;20477;-74
2023/07/19 06:19:50;;;;;;;7.63;4.60;;;;;;;17.97;100.00;101316.22;5042623;28;20025;-73
2023/07/19 06:22:15;;;;;;;10.95;4.80;;;;;;;18.16;99.49;101303.88;5029754;28;20021;-74
2023/07/19 06:24:41;;;;;;;15.38;5.20;;;;;;;18.49;98.09;101324.28;5035309;28;20394;-74
2023/07/19 06:27:06;;;;;;;10.10;5.47;;;;;;;18.61;96.08;101312.28;5043617;28;20041;-73
2023/07/19 06:29:31;;;;;;;7.95;4.53;;;;;;;18.63;95.55;101315.69;5031854;28;20115;-73
2023/07/19 06:31:56;;;;;;;9.27;5.40;;;;;;;18.54;95.95;101317.00;5044366;28;20040;-73
2023/07/19 06:34:22;;;;;;;8.05;5.35;;;;;;;18.35;96.64;101303.84;5037484;28;20033;-73
2023/07/19 06:36:47;;;;;;;10.57;5.20;;;;;;;18.28;97.89;101302.44;5038841;28;20067;-73
2023/07/19 06:39:13;;;;;;;6.50;4.70;;;;;;;18.28;98.16;101309.47;5035822;28;20359;-73
2023/07/19 06:41:38;;;;;;;7.38;5.15;;;;;;;18.27;98.91;101313.06;5039526;28;20056;-73
2023/07/19 06:44:03;;;;;;;9.32;5.90;;;;;;;18.29;98.66;101321.75;5037331;28;20037;-74
2023/07/19 06:46:29;;;;;;;11.07;6.20;;;;;;;18.25;98.63;101319.25;5034752;28;20030;-74
2023/07/19 06:48:54;;;;;;;9.73;5.55;;;;;;;18.27;100.00;101308.63;5036144;28;20037;-73
2023/07/19 06:51:19;;;;;;;9.57;5.72;;;;;;;18.37;99.58;101317.81;5028447;28;20052;-73
2023/07/19 06:53:45;;;;;;;15.30;6.60;;;;;;;18.45;96.80;101318.28;5041756;28;20446;-72
2023/07/19 06:56:10;;;;;;;9.13;5.80;;;;;;;18.51;95.51;101317.16;5044302;28;20029;-73
2023/07/19 06:58:35;;;;;;;8.07;5.18;;;;;;;18.61;95.82;101309.63;5041712;28;20469;-73
2023/07/19 07:01:00;;;;;;;8.40;4.93;;;;;;;18.79;94.23;101319.28;5046601;28;20358;-73
2023/07/19 07:03:26;;;;;;;10.25;5.20;;;;;;;19.01;93.36;101327.00;5040446;28;20496;-73
2023/07/19 07:05:51;;;;;;;11.55;5.18;;;;;;;19.19;90.45;101327.81;5048292;28;20366;-73
2023/07/19 07:08:17;;;;;;;10.95;5.03;;;;;;;19.24;90.17;101317.88;5039843;28;20063;-73
2023/07/19 07:10:45;;;;;;;9.98;4.57;;;;;;;19.54;89.24;101327.78;5048430;28;20151;-73
2023/07/19 07:13:10;;;;;;;11.82;4.25;;;;;;;19.90;88.71;101327.59;5040443;28;20040;-73
2023/07/19 07:15:36;;;;;;;7.75;4.18;;;;;;;20.35;86.35;101321.53;5046722;28;20029;-73
2023/07/19 07:18:01;;;;;;;8.02;3.90;;;;;;;20.64;84.66;101331.44;5036172;28;20513;-73
2023/07/19 07:20:27;;;;;;;7.72;3.53;;;;;;;20.78;79.91;101319.09;5044600;28;20354;-73
2023/07/19 07:22:53;;;;;;;9.35;3.40;;;;;;;20.75;75.61;101311.31;5040096;28;20037;-73
2023/07/19 07:25:19;;;;;;;7.95;3.15;;;;;;;20.68;76.24;101320.56;5047163;28;20030;-73
2023/07/19 07:27:44;;;;;;;9.93;2.92;;;;;;;20.68;76.00;101317.94;5028256;28;20429;-73
2023/07/19 07:30:10;;;;;;;6.88;3.17;;;;;;;20.67;77.18;101328.63;5046418;28;20024;-73
2023/07/19 07:32:35;;;;;;;8.25;2.90;;;;;;;20.61;79.72;101319.22;5039559;28;20049;-73
2023/07/19 07:35:01;;;;;;;7.75;3.10;;;;;;;20.67;77.36;101323.31;5043932;28;20067;-72
2023/07/19 07:37:26;;;;;;;6.80;2.83;;;;;;;20.61;78.27;101307.78;5039162;28;20060;-73
2023/07/19 07:39:51;;;;;;;8.23;3.00;;;;;;;20.64;78.78;101297.88;5045671;28;20021;-73
2023/07/19 07:42:19;;;;;;;5.45;2.80;;;;;;;20.76;75.45;101315.69;5046624;28;20025;-73
2023/07/19 07:44:44;;;;;;;9.48;3.65;;;;;;;20.88;74.82;101315.91;5046621;28;20078;-73
2023/07/19 07:47:10;;;;;;;7.00;2.63;;;;;;;20.90;74.87;101312.22;5047330;28;20411;-73
2023/07/19 07:49:35;;;;;;;8.48;2.95;;;;;;;20.86;78.80;101315.97;5046095;28;20436;-73
2023/07/19 07:52:01;;;;;;;7.60;2.92;;;;;;;20.95;76.04;101315.44;5044751;28;20021;-73
2023/07/19 07:54:26;;;;;;;5.63;2.90;;;;;;;20.98;73.66;101317.91;5040763;28;20039;-73
2023/07/19 07:56:51;;;;;;;5.82;2.70;;;;;;;21.16;74.22;101304.53;5046960;28;20029;-73
2023/07/19 07:59:17;;;;;;;6.93;3.00;;;;;;;21.30;71.98;101314.28;5045945;28;20465;-73
2023/07/19 08:01:42;;;;;;;5.13;2.40;;;;;;;21.38;70.69;101312.03;5045404;28;20124;-73
2023/07/19 08:04:10;;;;;;;7.18;2.55;;;;;;;21.39;71.93;101306.66;5046354;28;20071;-73
2023/07/19 08:06:35;;;;;;;7.75;2.88;;;;;;;21.45;70.92;101302.75;5045812;28;20026;-73
2023/07/19 08:09:01;;;;;;;7.72;2.72;;;;;;;21.25;71.64;101312.78;5046982;28;20067;-73
2023/07/19 08:11:26;;;;;;;5.10;2.40;;;;;;;21.07;73.63;101308.56;5048972;28;20025;-72
2023/07/19 08:13:53;;;;;;;7.60;3.30;;;;;;;20.90;69.25;101306.94;5044631;28;20470;-73
2023/07/19 08:16:18;;;;;;;9.23;3.00;;;;;;;20.85;71.71;101300.19;5050066;28;20108;-73
2023/07/19 08:18:44;;;;;;;7.00;2.70;;;;;;;21.00;70.60;101299.28;5037640;28;20178;-73
2023/07/19 08:21:09;;;;;;;6.18;3.15;;;;;;;21.23;69.89;101280.19;5046242;28;20025;-73
2023/07/19 08:23:34;;;;;;;10.88;3.42;;;;;;;21.51;65.23;101294.41;5039325;28;20472;-73
2023/07/19 08:26:00;;;;;;;7.32;3.72;;;;;;;21.71;68.47;101293.16;5043232;28;20473;-73
2023/07/19 08:28:25;;;;;;;7.32;3.00;;;;;;;21.98;62.63;101293.22;5043784;28;20036;-73
2023/07/19 08:30:54;;;;;;;6.55;2.70;;;;;;;22.22;67.14;101292.63;5043093;28;20563;-72
2023/07/19 08:33:21;;;;;;;5.93;2.63;;;;;;;22.38;63.17;101288.84;5042823;28;21538;-73
2023/07/19 08:35:47;;;;;;;4.93;2.50;;;;;;;22.42;62.68;101294.81;5042887;28;20100;-73
2023/07/19 08:38:13;;;;;;;6.07;2.67;;;;;;;22.49;60.04;101298.75;5043196;28;20496;-73
2023/07/19 08:40:39;;;;;;;5.32;2.50;;;;;;;22.35;60.15;101297.03;5041996;28;20127;-73
2023/07/19 08:43:06;;;;;;;4.03;2.70;;;;;;;22.01;60.11;101294.81;5042958;28;20108;-73
2023/07/19 08:45:35;;;;;;;8.98;2.80;;;;;;;21.74;62.13;101290.31;5050047;28;21003;-73
2023/07/19 08:48:00;;;;;;;7.05;2.67;;;;;;;21.59;64.95;101297.44;5039619;28;20029;-73
2023/07/19 08:50:27;;;;;;;8.98;2.90;;;;;;;21.51;62.95;101300.56;5050289;28;20025;-73
2023/07/19 08:52:53;;;;;;;5.70;2.65;;;;;;;21.52;66.06;101301.44;5041725;28;20021;-73
2023/07/19 08:55:20;;;;;;;7.78;3.45;;;;;;;21.55;66.14;101305.69;5049393;28;20438;-73
2023/07/19 08:57:46;;;;;;;9.02;3.63;;;;;;;21.44;66.75;101306.34;5042577;28;20033;-73
2023/07/19 09:00:16;;;;;;;8.98;3.47;;;;;;;21.40;67.18;101302.19;5048866;28;20044;-73
2023/07/19 09:02:41;;;;;;;8.25;3.15;;;;;;;21.41;68.54;101288.81;5043156;28;20032;-73
2023/07/19 09:05:11;;;;;;;6.38;3.20;;;;;;;21.66;68.66;101295.25;5047299;28;20511;-73
2023/07/19 09:07:37;;;;;;;5.93;2.78;;;;;;;21.89;68.74;101288.50;5044694;28;20091;-73
2023/07/19 09:10:04;;;;;;;6.65;3.10;;;;;;;22.22;70.31;101295.28;5037947;28;20029;-73
2023/07/19 09:12:40;;;;;;;8.57;3.10;;;;;;;22.46;66.04;101298.13;5045502;28;20500;-73
2023/07/19 09:15:10;;;;;;;8.70;3.30;;;;;;;22.99;69.00;101291.88;5039098;28;20120;-73
2023/07/19 09:17:40;;;;;;;8.50;3.70;;;;;;;23.31;63.15;101294.97;5041113;28;20029;-73
2023/07/19 09:20:06;;;;;;;7.07;3.20;;;;;;;23.19;61.43;101287.84;5044374;28;20116;-73
2023/07/19 09:22:34;;;;;;;8.25;3.33;;;;;;;23.13;63.17;101305.06;5035202;28;20481;-73
2023/07/19 09:25:03;;;;;;;7.45;3.47;;;;;;;23.21;63.39;101296.56;5032120;28;20040;-73
2023/07/19 09:27:29;;;;;;;6.72;2.67;;;;;;;23.28;62.59;101287.22;5039545;28;20022;-73
2023/07/19 09:29:55;;;;;;;6.85;3.10;;;;;;;23.44;64.35;101280.81;5048596;28;20029;-73
2023/07/19 09:32:21;;;;;;;8.43;3.67;;;;;;;23.81;60.59;101289.72;5041615;28;20607;-73
2023/07/19 09:34:47;;;;;;;6.25;3.22;;;;;;;23.74;60.08;101291.09;5045362;28;20036;-73
2023/07/19 09:37:12;;;;;;;7.75;3.40;;;;;;;23.55;60.36;101292.41;5043451;28;20024;-73
2023/07/19 09:39:38;;;;;;;8.23;3.50;;;;;;;23.58;59.43;101289.53;5039911;28;20473;-73
2023/07/19 09:42:04;;;;;;;5.30;3.10;;;;;;;23.73;59.86;101292.06;5029681;28;20052;-73
2023/07/19 09:44:32;;;;;;;7.20;2.58;;;;;;;23.86;56.08;101290.22;5044364;28;20477;-73
2023/07/19 09:46:58;;;;;;;9.05;2.78;;;;;;;24.22;59.16;101289.34;5040994;28;20104;-72
2023/07/19 09:49:24;;;;;;;5.32;2.28;;;;;;;24.37;57.23;101283.84;5041107;28;20516;-73
2023/07/19 09:51:50;;;;;;;5.40;2.45;;;;;;;24.41;56.79;101291.53;5036656;28;20029;-73
2023/07/19 09:54:15;;;;;;;6.18;2.53;;;;;;;24.48;58.55;101294.59;5028844;28;20047;-73
2023/07/19 09:56:43;;;;;;;8.77;2.80;;;;;;;24.38;56.07;101294.38;5035284;28;20033;-74
2023/07/19 09:59:14;;;;;;;6.88;2.75;;;;;;;24.06;59.07;101280.78;5032352;28;20034;-74
2023/07/19 10:01:40;;;;;;;6.65;2.50;;;;;;;24.12;59.56;101287.47;5040336;28;20041;-73
2023/07/19 10:04:34;;;;;;;4.45;2.30;;;;;;;24.13;58.25;101294.50;5030390;28;20029;-74
2023/07/19 10:07:03;;;;;;;6.05;2.25;;;;;;;24.05;57.35;101290.59;5037488;28;20086;-74
2023/07/19 10:09:30;;;;;;;6.55;1.73;;;;;;;24.24;57.27;101290.09;5037459;28;20026;-73
2023/07/19 10:12:00;;;;;;;4.10;2.13;;;;;;;24.33;61.11;101287.69;5036952;28;20528;-73
2023/07/19 10:14:28;;;;;;;3.42;1.98;;;;;;;24.43;60.09;101297.59;5034792;28;20112;-73
2023/07/19 10:16:59;;;;;;;5.72;2.13;;;;;;;24.24;58.99;101295.41;5030932;28;20025;-73
2023/07/19 10:19:25;;;;;;;3.85;2.00;;;;;;;23.91;56.99;101295.22;5031826;28;20044;-76
2023/07/19 10:22:06;;;;;;;9.10;2.65;;;;;;;23.62;59.73;101303.47;5030765;28;20033;-76
2023/07/19 10:24:34;;;;;;;5.63;2.00;;;;;;;23.39;60.64;101299.75;5033667;28;20031;-76
2023/07/19 10:27:01;;;;;;;6.22;2.72;;;;;;;23.34;60.90;101297.41;5042721;28;20036;-76
2023/07/19 10:29:36;;;;;;;6.25;2.08;;;;;;;23.73;62.72;101300.91;5031548;28;20029;-74
2023/07/19 10:32:03;;;;;;;5.60;2.22;;;;;;;24.00;63.00;101290.09;5034866;28;20033;-74
2023/07/19 10:34:29;;;;;;;5.75;2.30;;;;;;;24.29;59.80;101298.56;5040134;28;20033;-74
2023/07/19 10:37:01;;;;;;;7.90;2.28;;;;;;;24.56;58.95;101273.56;5043983;28;20021;-75
2023/07/19 10:39:26;;;;;;;5.68;1.85;;;;;;;24.86;55.80;101298.84;5037046;28;20040;-75
2023/07/19 10:41:52;;;;;;;3.58;2.08;;;;;;;24.80;53.96;101289.50;5029343;28;20021;-75
2023/07/19 10:44:17;;;;;;;6.10;2.25;;;;;;;24.76;51.89;101290.69;5034907;28;20034;-75
2023/07/19 10:46:43;;;;;;;6.43;1.80;;;;;;;24.80;55.45;101292.16;5038921;28;20027;-76
2023/07/19 10:49:09;;;;;;;4.40;2.15;;;;;;;24.68;52.73;101287.75;5033109;28;20025;-75
2023/07/19 10:51:34;;;;;;;5.65;1.98;;;;;;;24.85;51.49;101286.47;5039667;28;20025;-76
2023/07/19 10:53:59;;;;;;;6.63;2.10;;;;;;;24.94;53.62;101286.59;5042441;28;20043;-76
2023/07/19 10:56:26;;;;;;;5.38;1.65;;;;;;;25.18;52.81;101278.56;5043178;28;20036;-75
2023/07/19 10:58:53;;;;;;;3.70;1.85;;;;;;;25.41;51.10;101278.56;5039454;28;20025;-76
2023/07/19 11:01:21;;;;;;;4.95;2.08;;;;;;;25.88;52.04;101277.44;5032681;28;20030;-75
2023/07/19 11:03:47;;;;;;;3.58;1.55;;;;;;;26.02;49.90;101289.69;5041674;28;20105;-75
2023/07/19 11:06:12;;;;;;;2.72;1.50;;;;;;;25.75;49.72;101268.72;5040695;28;20071;-75
2023/07/19 11:08:38;;;;;;;3.92;1.83;;;;;;;25.83;51.29;101293.00;5037311;28;20416;-75
2023/07/19 11:11:03;;;;;;;3.90;2.00;;;;;;;25.74;51.31;101283.03;5031694;28;20037;-75
2023/07/19 11:13:30;;;;;;;3.95;1.80;;;;;;;25.71;53.17;101274.44;5039875;28;20376;-75